createdAt,value
2019-03-25T00:00:22.148Z,71.84
2019-03-25T00:01:22.482Z,71.53
2019-03-25T00:02:22.793Z,71.53
2019-03-25T00:03:23.153Z,71.53
2019-03-25T00:04:23.445Z,71.46
2019-03-25T00:05:23.811Z,71.33
2019-03-25T00:06:24.117Z,71.46
2019-03-25T00:07:24.540Z,71.88
2019-03-25T00:08:24.795Z,72.19
2019-03-25T00:09:25.075Z,72.19
2019-03-25T00:10:25.444Z,72.08
2019-03-25T00:11:25.771Z,72.39
2019-03-25T00:12:26.101Z,72.29
2019-03-25T00:13:26.472Z,72.29
2019-03-25T00:14:26.760Z,72.19
2019-03-25T00:15:27.136Z,72.39
2019-03-25T00:16:27.424Z,72.29
2019-03-25T00:17:27.758Z,72.60
2019-03-25T00:18:28.101Z,73.11
2019-03-25T00:19:28.407Z,73.11
2019-03-25T00:20:28.755Z,72.60
2019-03-25T00:21:29.063Z,72.29
2019-03-25T00:22:29.393Z,72.71
2019-03-25T00:23:29.769Z,73.11
2019-03-25T00:24:38.246Z,72.50
2019-03-25T00:25:31.460Z,72.94
2019-03-25T00:26:30.767Z,72.81
2019-03-25T00:27:31.074Z,72.94
2019-03-25T00:28:31.452Z,72.71
2019-03-25T00:29:45.402Z,72.84
2019-03-25T00:30:32.087Z,73.01
2019-03-25T00:31:32.462Z,73.15
2019-03-25T00:32:33.051Z,73.15
2019-03-25T00:33:33.089Z,73.46
2019-03-25T00:34:33.397Z,73.43
2019-03-25T00:35:33.740Z,73.67
2019-03-25T00:36:34.066Z,73.57
2019-03-25T00:37:34.375Z,73.46
2019-03-25T00:38:34.707Z,73.25
2019-03-25T00:39:35.039Z,73.05
2019-03-25T00:40:35.440Z,73.43
2019-03-25T00:41:35.686Z,73.32
2019-03-25T00:42:35.997Z,73.46
2019-03-25T00:43:36.356Z,73.46
2019-03-25T00:44:36.687Z,73.67
2019-03-25T00:45:37.006Z,74.19
2019-03-25T00:46:37.352Z,74.29
2019-03-25T00:47:37.687Z,73.88
2019-03-25T00:48:38.036Z,73.98
2019-03-25T00:49:38.334Z,73.77
2019-03-25T00:50:38.674Z,73.88
2019-03-25T00:51:39.016Z,74.19
2019-03-25T00:52:39.346Z,73.77
2019-03-25T00:53:39.699Z,73.57
2019-03-25T00:54:49.381Z,73.74
2019-03-25T00:55:41.315Z,73.84
2019-03-25T00:56:40.734Z,73.88
2019-03-25T00:57:40.969Z,73.98
2019-03-25T00:58:41.327Z,74.26
2019-03-25T00:59:41.661Z,73.84
2019-03-25T01:00:41.956Z,74.05
2019-03-25T01:01:42.308Z,74.36
2019-03-25T01:02:42.659Z,73.74
2019-03-25T01:03:43.017Z,73.74
2019-03-25T01:04:43.336Z,73.32
2019-03-25T01:05:43.692Z,73.43
2019-03-25T01:06:43.965Z,73.32
2019-03-25T01:07:44.298Z,73.32
2019-03-25T01:08:44.650Z,73.01
2019-03-25T01:09:44.960Z,73.43
2019-03-25T01:10:45.280Z,73.84
2019-03-25T01:11:49.125Z,73.74
2019-03-25T01:12:45.924Z,73.43
2019-03-25T01:13:46.403Z,72.91
2019-03-25T01:14:46.608Z,73.01
2019-03-25T01:15:46.922Z,73.11
2019-03-25T01:16:47.255Z,72.81
2019-03-25T01:17:47.566Z,73.11
2019-03-25T01:18:47.943Z,72.81
2019-03-25T01:19:48.264Z,72.91
2019-03-25T01:20:48.578Z,72.91
2019-03-25T01:21:48.988Z,72.91
2019-03-25T01:22:49.203Z,72.60
2019-03-25T01:23:49.569Z,72.60
2019-03-25T01:25:00.821Z,72.91
2019-03-25T01:25:51.213Z,72.71
2019-03-25T01:26:50.565Z,72.29
2019-03-25T01:27:50.869Z,72.50
2019-03-25T01:28:51.213Z,72.60
2019-03-25T01:29:51.597Z,72.50
2019-03-25T01:30:51.857Z,72.71
2019-03-25T01:31:52.211Z,72.50
2019-03-25T01:32:52.516Z,72.71
2019-03-25T01:33:52.861Z,72.81
2019-03-25T01:34:53.177Z,72.39
2019-03-25T01:35:53.518Z,72.19
2019-03-25T01:36:53.860Z,72.39
2019-03-25T01:37:54.212Z,72.19
2019-03-25T01:38:54.559Z,72.91
2019-03-25T01:39:54.823Z,72.50
2019-03-25T01:40:55.160Z,72.71
2019-03-25T01:41:55.506Z,72.50
2019-03-25T01:42:55.808Z,72.81
2019-03-25T01:43:56.165Z,72.60
2019-03-25T01:44:56.495Z,72.71
2019-03-25T01:45:56.796Z,72.84
2019-03-25T01:46:57.242Z,72.71
2019-03-25T01:47:57.461Z,72.81
2019-03-25T01:48:57.816Z,73.01
2019-03-25T01:49:58.169Z,73.01
2019-03-25T01:50:58.427Z,72.81
2019-03-25T01:51:58.792Z,72.91
2019-03-25T01:52:59.106Z,73.05
2019-03-25T01:53:59.440Z,73.05
2019-03-25T01:55:00.353Z,72.94
2019-03-25T01:56:00.091Z,72.84
2019-03-25T01:57:00.455Z,72.84
2019-03-25T01:58:00.765Z,73.05
2019-03-25T01:59:01.080Z,72.50
2019-03-25T02:00:01.460Z,73.25
2019-03-25T02:01:01.755Z,73.57
2019-03-25T02:02:02.084Z,73.57
2019-03-25T02:03:02.465Z,73.57
2019-03-25T02:04:02.720Z,73.57
2019-03-25T02:05:03.091Z,73.88
2019-03-25T02:06:03.390Z,74.29
2019-03-25T02:07:03.739Z,74.29
2019-03-25T02:08:04.035Z,74.22
2019-03-25T02:09:04.375Z,73.80
2019-03-25T02:10:04.769Z,74.11
2019-03-25T02:11:05.077Z,75.36
2019-03-25T02:12:05.365Z,75.15
2019-03-25T02:13:05.679Z,75.15
2019-03-25T02:14:06.024Z,75.26
2019-03-25T02:15:06.413Z,75.15
2019-03-25T02:16:06.694Z,75.26
2019-03-25T02:17:07.042Z,75.46
2019-03-25T02:18:07.345Z,75.78
2019-03-25T02:19:07.701Z,75.50
2019-03-25T02:20:08.155Z,75.36
2019-03-25T02:21:08.355Z,75.40
2019-03-25T02:22:08.938Z,75.05
2019-03-25T02:23:09.425Z,74.74
2019-03-25T02:24:09.335Z,74.74
2019-03-25T02:25:09.683Z,74.43
2019-03-25T02:26:10.007Z,74.43
2019-03-25T02:27:10.350Z,74.46
2019-03-25T02:28:10.771Z,74.26
2019-03-25T02:29:10.969Z,75.29
2019-03-25T02:30:11.333Z,74.67
2019-03-25T02:31:11.676Z,75.29
2019-03-25T02:32:12.005Z,75.60
2019-03-25T02:33:12.335Z,75.43
2019-03-25T02:34:12.655Z,75.40
2019-03-25T02:35:12.983Z,75.33
2019-03-25T02:36:13.377Z,75.74
2019-03-25T02:37:13.644Z,75.85
2019-03-25T02:38:13.962Z,76.47
2019-03-25T02:39:14.298Z,76.50
2019-03-25T02:40:14.660Z,75.88
2019-03-25T02:41:14.938Z,76.71
2019-03-25T02:42:15.297Z,76.81
2019-03-25T02:43:15.636Z,77.12
2019-03-25T02:44:15.994Z,77.23
2019-03-25T02:45:16.285Z,77.23
2019-03-25T02:46:16.619Z,77.26
2019-03-25T02:47:16.926Z,77.06
2019-03-25T02:48:17.249Z,77.68
2019-03-25T02:49:17.602Z,77.37
2019-03-25T02:50:17.933Z,77.26
2019-03-25T02:51:18.245Z,78.20
2019-03-25T02:52:18.595Z,77.99
2019-03-25T02:53:18.973Z,78.30
2019-03-25T02:54:19.273Z,77.47
2019-03-25T02:55:19.604Z,77.47
2019-03-25T02:56:19.900Z,77.68
2019-03-25T02:57:20.224Z,77.89
2019-03-25T02:58:20.555Z,77.58
2019-03-25T02:59:20.947Z,78.20
2019-03-25T03:00:21.257Z,77.47
2019-03-25T03:01:21.685Z,77.37
2019-03-25T03:02:21.873Z,78.20
2019-03-25T03:03:22.242Z,78.13
2019-03-25T03:04:22.628Z,78.30
2019-03-25T03:05:22.935Z,78.20
2019-03-25T03:06:23.245Z,78.13
2019-03-25T03:07:23.643Z,78.13
2019-03-25T03:08:23.934Z,78.09
2019-03-25T03:09:24.344Z,77.37
2019-03-25T03:10:24.581Z,77.47
2019-03-25T03:11:24.898Z,77.16
2019-03-25T03:12:25.218Z,77.16
2019-03-25T03:13:25.564Z,77.47
2019-03-25T03:14:25.870Z,77.26
2019-03-25T03:15:26.229Z,77.37
2019-03-25T03:16:26.562Z,77.37
2019-03-25T03:17:26.910Z,76.75
2019-03-25T03:18:27.206Z,77.26
2019-03-25T03:19:27.529Z,77.06
2019-03-25T03:20:27.856Z,76.54
2019-03-25T03:21:28.204Z,76.29
2019-03-25T03:22:28.530Z,76.33
2019-03-25T03:23:28.874Z,76.33
2019-03-25T03:24:29.183Z,76.40
2019-03-25T03:25:29.588Z,76.40
2019-03-25T03:26:29.852Z,76.50
2019-03-25T03:27:30.227Z,76.71
2019-03-25T03:28:30.531Z,76.50
2019-03-25T03:29:30.841Z,76.61
2019-03-25T03:30:31.181Z,75.67
2019-03-25T03:31:31.491Z,75.67
2019-03-25T03:32:31.822Z,75.67
2019-03-25T03:33:32.208Z,75.46
2019-03-25T03:34:32.618Z,75.78
2019-03-25T03:35:32.866Z,75.46
2019-03-25T03:36:33.146Z,75.67
2019-03-25T03:37:33.481Z,75.67
2019-03-25T03:38:33.846Z,75.67
2019-03-25T03:39:34.160Z,75.67
2019-03-25T03:40:34.505Z,75.67
2019-03-25T03:41:34.829Z,75.46
2019-03-25T03:42:35.286Z,74.53
2019-03-25T03:43:35.504Z,75.05
2019-03-25T03:44:35.821Z,75.15
2019-03-25T03:45:36.166Z,74.74
2019-03-25T03:46:36.469Z,75.15
2019-03-25T03:47:36.796Z,75.36
2019-03-25T03:48:37.157Z,75.15
2019-03-25T03:49:37.474Z,74.53
2019-03-25T03:50:37.868Z,74.53
2019-03-25T03:51:38.135Z,74.53
2019-03-25T03:52:38.451Z,74.11
2019-03-25T03:53:38.798Z,74.22
2019-03-25T03:54:39.126Z,74.53
2019-03-25T03:55:39.445Z,74.53
2019-03-25T03:56:39.797Z,74.43
2019-03-25T03:57:40.105Z,73.70
2019-03-25T03:58:40.460Z,74.43
2019-03-25T03:59:40.735Z,73.77
2019-03-25T04:00:41.095Z,73.70
2019-03-25T04:01:41.834Z,73.60
2019-03-25T04:02:41.983Z,73.70
2019-03-25T04:03:42.089Z,73.60
2019-03-25T04:04:42.416Z,74.84
2019-03-25T04:05:42.747Z,74.01
2019-03-25T04:06:43.146Z,74.53
2019-03-25T04:07:43.460Z,74.53
2019-03-25T04:08:43.772Z,74.43
2019-03-25T04:09:44.079Z,74.01
2019-03-25T04:10:44.410Z,75.05
2019-03-25T04:11:44.763Z,75.05
2019-03-25T04:12:45.063Z,75.46
2019-03-25T04:13:45.414Z,74.95
2019-03-25T04:14:45.731Z,75.26
2019-03-25T04:15:46.191Z,75.26
2019-03-25T04:16:46.399Z,75.46
2019-03-25T04:17:46.707Z,75.26
2019-03-25T04:18:47.051Z,75.57
2019-03-25T04:19:47.362Z,75.78
2019-03-25T04:20:47.698Z,75.78
2019-03-25T04:21:48.035Z,76.02
2019-03-25T04:22:48.368Z,75.88
2019-03-25T04:23:48.796Z,75.98
2019-03-25T04:24:49.003Z,76.40
2019-03-25T04:25:49.338Z,76.64
2019-03-25T04:26:49.659Z,76.54
2019-03-25T04:27:50.009Z,76.71
2019-03-25T04:28:50.343Z,76.50
2019-03-25T04:29:50.653Z,76.64
2019-03-25T04:30:50.985Z,76.61
2019-03-25T04:31:51.361Z,76.71
2019-03-25T04:32:51.823Z,76.61
2019-03-25T04:33:51.981Z,76.71
2019-03-25T04:34:52.295Z,76.61
2019-03-25T04:35:52.623Z,76.71
2019-03-25T04:36:52.984Z,75.78
2019-03-25T04:37:56.177Z,76.19
2019-03-25T04:38:53.615Z,76.06
2019-03-25T04:39:54.012Z,75.88
2019-03-25T04:40:54.301Z,75.67
2019-03-25T04:41:54.648Z,75.64
2019-03-25T04:42:54.954Z,75.64
2019-03-25T04:43:55.279Z,75.26
2019-03-25T04:44:55.582Z,75.33
2019-03-25T04:45:55.935Z,75.88
2019-03-25T04:46:56.282Z,75.33
2019-03-25T04:47:56.612Z,74.91
2019-03-25T04:48:57.040Z,75.43
2019-03-25T04:49:57.247Z,75.74
2019-03-25T04:50:57.582Z,74.91
2019-03-25T04:51:57.925Z,75.12
2019-03-25T04:52:58.249Z,75.02
2019-03-25T04:53:58.589Z,75.02
2019-03-25T04:54:58.876Z,75.12
2019-03-25T04:55:59.208Z,75.12
2019-03-25T04:56:59.722Z,74.26
2019-03-25T04:57:59.898Z,74.29
2019-03-25T04:59:00.238Z,74.57
2019-03-25T05:00:00.555Z,74.57
2019-03-25T05:01:05.841Z,73.67
2019-03-25T05:02:01.225Z,74.19
2019-03-25T05:03:01.558Z,74.15
2019-03-25T05:04:01.882Z,74.36
2019-03-25T05:05:02.283Z,73.43
2019-03-25T05:06:02.482Z,73.63
2019-03-25T05:07:02.873Z,73.32
2019-03-25T05:08:03.186Z,73.49
2019-03-25T05:09:03.519Z,73.63
2019-03-25T05:10:03.832Z,73.11
2019-03-25T05:11:04.158Z,73.01
2019-03-25T05:12:04.492Z,73.08
2019-03-25T05:13:04.883Z,73.08
2019-03-25T05:14:05.129Z,73.08
2019-03-25T05:15:05.468Z,72.88
2019-03-25T05:16:05.790Z,72.88
2019-03-25T05:17:06.122Z,72.56
2019-03-25T05:18:06.440Z,72.98
2019-03-25T05:19:06.788Z,72.25
2019-03-25T05:20:07.130Z,72.15
2019-03-25T05:21:07.480Z,71.73
2019-03-25T05:22:07.943Z,71.94
2019-03-25T05:23:08.114Z,71.73
2019-03-25T05:24:08.450Z,71.84
2019-03-25T05:25:08.793Z,71.94
2019-03-25T05:26:09.109Z,71.84
2019-03-25T05:27:09.460Z,71.94
2019-03-25T05:28:09.776Z,71.94
2019-03-25T05:29:10.094Z,72.15
2019-03-25T05:30:10.523Z,71.59
2019-03-25T05:31:10.767Z,72.05
2019-03-25T05:32:11.491Z,72.25
2019-03-25T05:33:11.427Z,72.22
2019-03-25T05:34:11.738Z,72.32
2019-03-25T05:35:12.084Z,72.22
2019-03-25T05:36:12.400Z,71.91
2019-03-25T05:37:12.755Z,72.32
2019-03-25T05:38:13.173Z,72.42
2019-03-25T05:39:13.372Z,72.01
2019-03-25T05:40:13.970Z,72.42
2019-03-25T05:41:14.052Z,71.70
2019-03-25T05:42:14.393Z,71.91
2019-03-25T05:43:14.716Z,71.91
2019-03-25T05:44:15.035Z,72.08
2019-03-25T05:45:15.365Z,71.91
2019-03-25T05:46:15.747Z,71.88
2019-03-25T05:47:16.031Z,72.32
2019-03-25T05:48:16.381Z,72.94
2019-03-25T05:49:16.700Z,73.01
2019-03-25T05:50:17.035Z,73.53
2019-03-25T05:51:17.333Z,73.32
2019-03-25T05:52:17.690Z,74.15
2019-03-25T05:53:18.018Z,73.63
2019-03-25T05:54:18.396Z,74.26
2019-03-25T05:55:18.705Z,73.53
2019-03-25T05:56:18.984Z,74.88
2019-03-25T05:57:19.334Z,75.02
2019-03-25T05:58:19.708Z,75.74
2019-03-25T05:59:19.993Z,76.15
2019-03-25T06:00:20.339Z,77.85
2019-03-25T06:01:20.651Z,79.51
2019-03-25T06:02:21.022Z,81.82
2019-03-25T06:03:21.443Z,82.97
2019-03-25T06:04:21.641Z,84.56
2019-03-25T06:05:21.988Z,85.33
2019-03-25T06:06:22.301Z,85.95
2019-03-25T06:07:22.648Z,86.99
2019-03-25T06:08:22.972Z,87.55
2019-03-25T06:09:23.292Z,88.28
2019-03-25T06:10:23.633Z,88.48
2019-03-25T06:11:24.035Z,89.67
2019-03-25T06:12:24.273Z,90.39
2019-03-25T06:13:24.626Z,90.29
2019-03-25T06:14:24.959Z,90.08
2019-03-25T06:15:25.301Z,90.29
2019-03-25T06:16:25.614Z,90.29
2019-03-25T06:17:25.957Z,90.81
2019-03-25T06:18:26.276Z,90.19
2019-03-25T06:19:26.669Z,91.02
2019-03-25T06:20:26.933Z,91.27
2019-03-25T06:21:27.255Z,91.33
2019-03-25T06:22:27.586Z,91.85
2019-03-25T06:23:27.938Z,92.36
2019-03-25T06:24:28.253Z,91.85
2019-03-25T06:25:28.612Z,92.68
2019-03-25T06:26:28.935Z,92.78
2019-03-25T06:27:29.315Z,92.88
2019-03-25T06:28:29.610Z,94.03
2019-03-25T06:29:31.944Z,93.51
2019-03-25T06:30:30.251Z,92.88
2019-03-25T06:31:30.595Z,93.62
2019-03-25T06:32:30.944Z,92.68
2019-03-25T06:33:31.290Z,92.78
2019-03-25T06:34:31.623Z,92.63
2019-03-25T06:35:31.962Z,91.95
2019-03-25T06:36:32.333Z,92.26
2019-03-25T06:37:32.592Z,92.68
2019-03-25T06:38:32.941Z,91.95
2019-03-25T06:39:33.264Z,91.85
2019-03-25T06:40:33.595Z,92.93
2019-03-25T06:41:33.895Z,92.93
2019-03-25T06:42:34.242Z,93.87
2019-03-25T06:43:34.611Z,93.87
2019-03-25T06:44:35.037Z,94.18
2019-03-25T06:45:35.256Z,94.28
2019-03-25T06:46:35.560Z,94.59
2019-03-25T06:47:35.913Z,94.22
2019-03-25T06:48:36.246Z,93.70
2019-03-25T06:49:36.575Z,94.12
2019-03-25T06:50:36.919Z,94.37
2019-03-25T06:51:37.232Z,95.03
2019-03-25T06:52:37.630Z,95.76
2019-03-25T06:53:37.893Z,95.66
2019-03-25T06:54:38.220Z,96.08
2019-03-25T06:55:38.556Z,96.70
2019-03-25T06:56:38.868Z,97.43
2019-03-25T06:57:39.182Z,97.43
2019-03-25T06:58:39.545Z,97.43
2019-03-25T06:59:39.885Z,97.43
2019-03-25T07:00:40.299Z,97.33
2019-03-25T07:01:40.517Z,97.53
2019-03-25T07:02:40.858Z,97.53
2019-03-25T07:03:41.185Z,97.22
2019-03-25T07:04:41.515Z,97.89
2019-03-25T07:05:41.857Z,97.68
2019-03-25T07:06:42.171Z,97.27
2019-03-25T07:07:42.500Z,97.37
2019-03-25T07:08:42.926Z,97.37
2019-03-25T07:09:43.158Z,97.47
2019-03-25T07:10:43.515Z,97.58
2019-03-25T07:11:43.823Z,97.41
2019-03-25T07:12:44.154Z,97.47
2019-03-25T07:13:44.514Z,97.20
2019-03-25T07:14:44.823Z,97.94
2019-03-25T07:15:45.150Z,97.78
2019-03-25T07:16:45.490Z,97.41
2019-03-25T07:17:45.956Z,97.62
2019-03-25T07:18:46.407Z,97.72
2019-03-25T07:19:46.492Z,97.78
2019-03-25T07:20:46.795Z,98.66
2019-03-25T07:21:47.142Z,98.35
2019-03-25T07:22:47.489Z,98.66
2019-03-25T07:23:47.831Z,97.94
2019-03-25T07:24:48.150Z,98.41
2019-03-25T07:25:48.604Z,97.94
2019-03-25T07:26:48.837Z,97.99
2019-03-25T07:27:49.167Z,98.10
2019-03-25T07:28:49.510Z,98.41
2019-03-25T07:29:49.833Z,98.41
2019-03-25T07:30:50.157Z,98.52
2019-03-25T07:31:50.477Z,98.31
2019-03-25T07:32:50.834Z,98.16
2019-03-25T07:33:51.261Z,98.88
2019-03-25T07:34:51.483Z,98.05
2019-03-25T07:35:51.812Z,98.62
2019-03-25T07:36:52.170Z,98.10
2019-03-25T07:37:52.456Z,98.47
2019-03-25T07:38:52.822Z,97.53
2019-03-25T07:39:53.141Z,97.95
2019-03-25T07:40:53.466Z,97.95
2019-03-25T07:41:53.873Z,97.95
2019-03-25T07:42:54.074Z,97.64
2019-03-25T07:43:54.454Z,97.43
2019-03-25T07:44:54.829Z,97.64
2019-03-25T07:45:55.123Z,98.05
2019-03-25T07:46:55.473Z,98.11
2019-03-25T07:47:55.784Z,97.70
2019-03-25T07:48:56.134Z,97.91
2019-03-25T07:49:56.474Z,97.91
2019-03-25T07:50:56.861Z,97.59
2019-03-25T07:51:57.125Z,97.34
2019-03-25T07:52:57.438Z,97.65
2019-03-25T07:53:57.794Z,97.44
2019-03-25T07:54:58.119Z,97.55
2019-03-25T07:55:58.434Z,97.55
2019-03-25T07:56:58.787Z,97.30
2019-03-25T07:57:59.098Z,97.50
2019-03-25T07:58:59.546Z,97.09
2019-03-25T07:59:59.782Z,97.30
2019-03-25T08:01:00.075Z,97.40
2019-03-25T08:02:00.423Z,96.15
2019-03-25T08:03:00.735Z,96.15
2019-03-25T08:04:01.092Z,96.04
2019-03-25T08:05:01.431Z,95.84
2019-03-25T08:06:01.730Z,95.79
2019-03-25T08:07:02.182Z,95.65
2019-03-25T08:08:02.392Z,94.88
2019-03-25T08:09:03.919Z,94.36
2019-03-25T08:10:03.126Z,94.15
2019-03-25T08:11:03.373Z,94.05
2019-03-25T08:12:03.772Z,93.95
2019-03-25T08:13:04.093Z,93.57
2019-03-25T08:14:04.430Z,93.99
2019-03-25T08:15:04.854Z,94.15
2019-03-25T08:16:05.022Z,93.74
2019-03-25T08:17:05.359Z,93.74
2019-03-25T08:18:05.690Z,93.63
2019-03-25T08:19:06.030Z,93.84
2019-03-25T08:20:06.376Z,93.95
2019-03-25T08:21:06.674Z,93.95
2019-03-25T08:22:07.027Z,93.84
2019-03-25T08:23:07.361Z,93.22
2019-03-25T08:24:07.712Z,92.80
2019-03-25T08:25:08.020Z,92.59
2019-03-25T08:26:08.335Z,92.55
2019-03-25T08:27:08.673Z,91.97
2019-03-25T08:28:08.977Z,91.86
2019-03-25T08:29:09.326Z,91.83
2019-03-25T08:30:09.681Z,91.62
2019-03-25T08:31:10.059Z,91.41
2019-03-25T08:32:10.466Z,91.68
2019-03-25T08:33:10.647Z,90.95
2019-03-25T08:34:10.991Z,90.60
2019-03-25T08:35:11.345Z,90.08
2019-03-25T08:36:11.687Z,89.62
2019-03-25T08:37:12.021Z,88.90
2019-03-25T08:38:12.325Z,88.96
2019-03-25T08:39:12.645Z,87.82
2019-03-25T08:40:13.189Z,88.07
2019-03-25T08:41:13.399Z,87.66
2019-03-25T08:42:13.737Z,86.89
2019-03-25T08:43:14.049Z,86.68
2019-03-25T08:44:14.369Z,87.10
2019-03-25T08:45:14.725Z,87.41
2019-03-25T08:46:15.049Z,87.20
2019-03-25T08:47:15.388Z,86.58
2019-03-25T08:48:15.786Z,87.45
2019-03-25T08:49:16.014Z,87.55
2019-03-25T08:50:16.353Z,87.66
2019-03-25T08:51:16.690Z,87.35
2019-03-25T08:52:17.026Z,88.48
2019-03-25T08:53:17.340Z,89.31
2019-03-25T08:54:17.673Z,89.42
2019-03-25T08:55:18.261Z,89.11
2019-03-25T08:56:18.348Z,88.28
2019-03-25T08:57:18.661Z,87.14
2019-03-25T08:58:18.985Z,86.83
2019-03-25T08:59:19.310Z,86.27
2019-03-25T09:00:19.669Z,86.17
2019-03-25T09:01:19.986Z,85.71
2019-03-25T09:02:20.314Z,84.74
2019-03-25T09:03:20.649Z,83.71
2019-03-25T09:04:21.240Z,82.98
2019-03-25T09:05:21.414Z,82.43
2019-03-25T09:06:21.643Z,82.08
2019-03-25T09:07:21.965Z,81.98
2019-03-25T09:08:22.294Z,82.12
2019-03-25T09:09:22.640Z,82.22
2019-03-25T09:10:22.986Z,81.70
2019-03-25T09:11:23.309Z,82.12
2019-03-25T09:12:23.650Z,80.88
2019-03-25T09:13:24.045Z,81.70
2019-03-25T09:14:24.283Z,82.84
2019-03-25T09:15:24.626Z,81.95
2019-03-25T09:16:24.946Z,82.53
2019-03-25T09:17:25.295Z,81.29
2019-03-25T09:18:25.595Z,80.71
2019-03-25T09:19:25.949Z,81.02
2019-03-25T09:20:26.309Z,81.68
2019-03-25T09:21:26.727Z,81.78
2019-03-25T09:22:26.955Z,82.50
2019-03-25T09:23:27.267Z,82.71
2019-03-25T09:24:27.585Z,82.40
2019-03-25T09:25:27.954Z,83.40
2019-03-25T09:26:28.268Z,83.91
2019-03-25T09:27:28.597Z,82.05
2019-03-25T09:28:28.917Z,82.46
2019-03-25T09:29:29.268Z,82.64
2019-03-25T09:30:29.573Z,82.12
2019-03-25T09:31:36.838Z,81.87
2019-03-25T09:32:31.259Z,82.18
2019-03-25T09:33:30.581Z,81.87
2019-03-25T09:34:30.897Z,80.32
2019-03-25T09:35:31.251Z,80.22
2019-03-25T09:36:31.570Z,80.94
2019-03-25T09:37:31.949Z,79.94
2019-03-25T09:38:32.266Z,80.22
2019-03-25T09:39:32.566Z,80.43
2019-03-25T09:40:32.903Z,80.22
2019-03-25T09:41:33.229Z,79.91
2019-03-25T09:42:33.549Z,79.91
2019-03-25T09:43:33.872Z,80.22
2019-03-25T09:44:34.202Z,80.67
2019-03-25T09:45:34.577Z,79.33
2019-03-25T09:46:34.979Z,80.26
2019-03-25T09:47:37.642Z,79.74
2019-03-25T09:48:35.530Z,79.49
2019-03-25T09:49:35.865Z,79.19
2019-03-25T09:50:36.210Z,78.53
2019-03-25T09:51:36.532Z,77.98
2019-03-25T09:52:38.665Z,76.73
2019-03-25T09:53:37.189Z,76.60
2019-03-25T09:54:37.660Z,74.05
2019-03-25T09:55:37.885Z,74.22
2019-03-25T09:56:38.214Z,74.12
2019-03-25T09:57:38.510Z,73.19
2019-03-25T09:58:38.876Z,73.12
2019-03-25T09:59:39.183Z,73.43
2019-03-25T10:00:39.534Z,73.50
2019-03-25T10:01:39.848Z,74.53
2019-03-25T10:02:40.208Z,74.02
2019-03-25T10:03:40.499Z,72.91
2019-03-25T10:04:40.835Z,73.16
2019-03-25T10:05:41.179Z,73.88
2019-03-25T10:06:41.502Z,75.01
2019-03-25T10:07:41.843Z,74.19
2019-03-25T10:08:42.170Z,74.08
2019-03-25T10:09:42.469Z,74.19
2019-03-25T10:10:42.886Z,74.91
2019-03-25T10:11:43.117Z,73.88
2019-03-25T10:12:43.479Z,74.67
2019-03-25T10:13:43.797Z,74.77
2019-03-25T10:14:44.102Z,74.57
2019-03-25T10:15:44.466Z,74.98
2019-03-25T10:16:44.803Z,73.95
2019-03-25T10:17:45.132Z,73.71
2019-03-25T10:18:45.492Z,74.43
2019-03-25T10:19:45.858Z,73.47
2019-03-25T10:20:46.131Z,72.85
2019-03-25T10:21:46.457Z,72.30
2019-03-25T10:22:46.795Z,71.99
2019-03-25T10:23:47.147Z,71.55
2019-03-25T10:24:47.446Z,71.13
2019-03-25T10:25:47.796Z,70.92
2019-03-25T10:26:48.095Z,71.03
2019-03-25T10:27:48.575Z,71.75
2019-03-25T10:28:49.315Z,71.44
2019-03-25T10:29:49.094Z,71.10
2019-03-25T10:30:49.428Z,71.20
2019-03-25T10:31:49.749Z,71.51
2019-03-25T10:32:50.095Z,69.69
2019-03-25T10:33:50.431Z,70.17
2019-03-25T10:34:50.979Z,70.37
2019-03-25T10:35:51.181Z,71.10
2019-03-25T10:36:51.387Z,70.51
2019-03-25T10:37:51.816Z,71.20
2019-03-25T10:38:52.076Z,71.64
2019-03-25T10:39:52.388Z,71.89
2019-03-25T10:40:52.728Z,72.61
2019-03-25T10:41:53.049Z,74.67
2019-03-25T10:42:53.371Z,75.29
2019-03-25T10:43:53.760Z,74.88
2019-03-25T10:44:54.036Z,75.26
2019-03-25T10:45:54.388Z,73.91
2019-03-25T10:46:54.698Z,72.16
2019-03-25T10:47:55.055Z,72.16
2019-03-25T10:48:55.407Z,72.54
2019-03-25T10:49:55.683Z,72.64
2019-03-25T10:50:56.032Z,72.54
2019-03-25T10:51:56.385Z,71.10
2019-03-25T10:52:56.754Z,70.07
2019-03-25T10:53:57.026Z,70.07
2019-03-25T10:55:57.701Z,69.21
2019-03-25T10:56:58.051Z,69.18
2019-03-25T10:57:58.386Z,69.18
2019-03-25T10:58:58.728Z,68.66
2019-03-25T10:59:59.049Z,69.04
2019-03-25T11:00:59.487Z,67.09
2019-03-25T11:01:59.709Z,67.50
2019-03-25T11:03:00.038Z,68.02
2019-03-25T11:04:00.377Z,66.54
2019-03-25T11:05:00.676Z,67.09
2019-03-25T11:06:01.017Z,66.03
2019-03-25T11:07:01.374Z,66.03
2019-03-25T11:08:01.681Z,65.41
2019-03-25T11:09:02.117Z,65.41
2019-03-25T11:10:02.320Z,63.15
2019-03-25T11:11:03.522Z,64.76
2019-03-25T11:12:03.046Z,65.17
2019-03-25T11:13:03.337Z,64.66
2019-03-25T11:14:03.671Z,63.32
2019-03-25T11:15:03.984Z,63.64
2019-03-25T11:16:04.300Z,64.04
2019-03-25T11:17:04.701Z,64.04
2019-03-25T11:18:05.802Z,63.25
2019-03-25T11:19:05.312Z,64.36
2019-03-25T11:20:05.623Z,63.50
2019-03-25T11:21:05.953Z,63.68
2019-03-25T11:22:06.285Z,63.17
2019-03-25T11:23:06.625Z,62.55
2019-03-25T11:24:06.959Z,62.55
2019-03-25T11:25:07.338Z,61.18
2019-03-25T11:26:07.577Z,61.39
2019-03-25T11:27:07.932Z,60.29
2019-03-25T11:28:08.241Z,61.83
2019-03-25T11:29:08.956Z,62.96
2019-03-25T11:30:08.909Z,62.55
2019-03-25T11:31:09.370Z,62.04
2019-03-25T11:32:09.590Z,62.06
2019-03-25T11:33:09.941Z,62.85
2019-03-25T11:34:10.292Z,62.45
2019-03-25T11:35:10.558Z,62.96
2019-03-25T11:36:10.879Z,62.75
2019-03-25T11:37:11.283Z,63.40
2019-03-25T11:38:11.555Z,65.45
2019-03-25T11:39:11.879Z,66.82
2019-03-25T11:40:12.213Z,69.01
2019-03-25T11:41:12.542Z,71.00
2019-03-25T11:42:12.985Z,71.99
2019-03-25T11:43:13.191Z,73.57
2019-03-25T11:44:13.536Z,73.78
2019-03-25T11:45:13.864Z,75.56
2019-03-25T11:46:14.193Z,77.83
2019-03-25T11:47:14.540Z,78.59
2019-03-25T11:48:14.865Z,79.35
2019-03-25T11:49:15.197Z,80.38
2019-03-25T11:50:15.611Z,81.07
2019-03-25T11:51:15.837Z,82.00
2019-03-25T11:52:16.178Z,82.31
2019-03-25T11:53:16.510Z,82.31
2019-03-25T11:54:16.816Z,81.90
2019-03-25T11:55:17.827Z,80.93
2019-03-25T11:56:17.490Z,81.28
2019-03-25T11:57:17.874Z,81.80
2019-03-25T11:58:18.203Z,82.38
2019-03-25T11:59:18.998Z,81.66
2019-03-25T12:00:18.796Z,81.56
2019-03-25T12:01:19.148Z,81.93
2019-03-25T12:02:19.500Z,81.00
2019-03-25T12:03:19.826Z,81.21
2019-03-25T12:04:20.145Z,80.79
2019-03-25T12:05:20.494Z,78.90
2019-03-25T12:06:20.865Z,78.38
2019-03-25T12:07:21.195Z,75.91
2019-03-25T12:08:21.505Z,72.58
2019-03-25T12:09:21.816Z,75.05
2019-03-25T12:10:22.162Z,73.26
2019-03-25T12:11:23.663Z,74.08
2019-03-25T12:12:22.809Z,73.26
2019-03-25T12:13:23.165Z,72.61
2019-03-25T12:14:23.495Z,71.89
2019-03-25T12:15:24.163Z,71.17
2019-03-25T12:16:24.108Z,70.79
2019-03-25T12:17:24.469Z,71.31
2019-03-25T12:18:24.821Z,70.94
2019-03-25T12:19:25.128Z,66.51
2019-03-25T12:20:25.476Z,67.23
2019-03-25T12:21:25.783Z,67.03
2019-03-25T12:22:26.136Z,63.12
2019-03-25T12:23:26.758Z,64.63
2019-03-25T12:24:26.783Z,64.40
2019-03-25T12:25:27.143Z,63.13
2019-03-25T12:26:27.444Z,62.70
2019-03-25T12:27:27.855Z,61.46
2019-03-25T12:28:28.121Z,60.44
2019-03-25T12:29:30.330Z,61.26
2019-03-25T12:30:28.787Z,59.75
2019-03-25T12:31:29.144Z,60.57
2019-03-25T12:32:29.425Z,60.77
2019-03-25T12:33:29.804Z,61.26
2019-03-25T12:34:30.141Z,60.00
2019-03-25T12:35:30.435Z,58.39
2019-03-25T12:36:30.752Z,58.18
2019-03-25T12:37:31.098Z,58.59
2019-03-25T12:38:31.412Z,59.80
2019-03-25T12:39:31.784Z,60.21
2019-03-25T12:40:32.070Z,58.97
2019-03-25T12:41:32.384Z,60.31
2019-03-25T12:42:32.737Z,61.23
2019-03-25T12:43:33.090Z,59.95
2019-03-25T12:44:33.386Z,61.52
2019-03-25T12:45:33.718Z,63.09
2019-03-25T12:46:34.048Z,63.60
2019-03-25T12:47:34.449Z,64.43
2019-03-25T12:48:34.811Z,67.30
2019-03-25T12:49:35.050Z,68.61
2019-03-25T12:50:35.378Z,66.86
2019-03-25T12:51:35.706Z,65.42
2019-03-25T12:52:36.071Z,65.45
2019-03-25T12:53:36.412Z,65.66
2019-03-25T12:54:36.714Z,65.45
2019-03-25T12:55:37.075Z,66.25
2019-03-25T12:56:37.490Z,65.12
2019-03-25T12:57:37.711Z,65.94